KRHV/RHV METAR and TAF weather

Enter ICAO airport designator
Station Type Date Time Source
KRHV METAR 2019/08/20 01:50 UTC NOAA

KRHV 200150Z 31009KT 10SM SKC 22/14 A2995


Station Type Date Time Source
KRHV Decoded METAR 2019/08/20 01:50 UTC NOAA

San Jose / Reid / Hillv, CA, United States (KRHV) 37-20N 121-49W
Aug 19, 2019 - 09:50 PM EDT / 2019.08.20 0150 UTC
Wind: from the NW (310 degrees) at 10 MPH (9 KT):0
Visibility: 10 mile(s):0
Sky conditions: clear
Temperature: 71 F (22 C)
Dew Point: 57 F (14 C)
Relative Humidity: 60%
Pressure (altimeter): 29.95 in. Hg (1014 hPa)
ob: KRHV 200150Z 31009KT 10SM SKC 22/14 A2995
cycle: 2

Station Type Date Time Source
KRHV TAF UTC NOAA

Error!

Example: see airport list